sensor_id;sensor_type;location;lat;lon;timestamp;temperature;humidity
25991;DHT22;13779;-33.886;151.198;2023-07-31T00:00:28;18.00;99.90
25991;DHT22;13779;-33.886;151.198;2023-07-31T00:02:59;18.10;99.90
25991;DHT22;13779;-33.886;151.198;2023-07-31T00:05:30;18.10;99.90
25991;DHT22;13779;-33.886;151.198;2023-07-31T00:08:00;18.20;99.90
25991;DHT22;13779;-33.886;151.198;2023-07-31T00:10:31;18.30;99.90
25991;DHT22;13779;-33.886;151.198;2023-07-31T00:13:03;18.30;99.90
25991;DHT22;13779;-33.886;151.198;2023-07-31T00:15:33;18.30;99.90
25991;DHT22;13779;-33.886;151.198;2023-07-31T00:18:04;18.30;99.90
25991;DHT22;13779;-33.886;151.198;2023-07-31T00:20:34;18.30;99.90
25991;DHT22;13779;-33.886;151.198;2023-07-31T00:23:05;18.40;99.90
25991;DHT22;13779;-33.886;151.198;2023-07-31T00:25:35;18.40;99.90
25991;DHT22;13779;-33.886;151.198;2023-07-31T00:28:06;18.40;99.90
25991;DHT22;13779;-33.886;151.198;2023-07-31T00:30:37;18.40;99.90
25991;DHT22;13779;-33.886;151.198;2023-07-31T00:33:08;18.50;99.90
25991;DHT22;13779;-33.886;151.198;2023-07-31T00:35:38;18.50;99.90
25991;DHT22;13779;-33.886;151.198;2023-07-31T00:38:09;18.50;99.90
25991;DHT22;13779;-33.886;151.198;2023-07-31T00:40:40;18.50;99.90
25991;DHT22;13779;-33.886;151.198;2023-07-31T00:43:11;18.60;99.90
25991;DHT22;13779;-33.886;151.198;2023-07-31T00:45:41;18.70;99.90
25991;DHT22;13779;-33.886;151.198;2023-07-31T00:48:12;18.80;99.90
25991;DHT22;13779;-33.886;151.198;2023-07-31T00:50:42;18.90;99.90
25991;DHT22;13779;-33.886;151.198;2023-07-31T00:53:14;18.90;99.90
25991;DHT22;13779;-33.886;151.198;2023-07-31T00:55:45;19.00;99.90
25991;DHT22;13779;-33.886;151.198;2023-07-31T00:58:16;19.10;99.90
25991;DHT22;13779;-33.886;151.198;2023-07-31T01:00:46;19.10;99.90
25991;DHT22;13779;-33.886;151.198;2023-07-31T01:03:18;19.20;99.90
25991;DHT22;13779;-33.886;151.198;2023-07-31T01:11:38;19.30;99.90
25991;DHT22;13779;-33.886;151.198;2023-07-31T01:14:10;19.40;99.90
25991;DHT22;13779;-33.886;151.198;2023-07-31T01:16:40;19.40;99.90
25991;DHT22;13779;-33.886;151.198;2023-07-31T01:19:12;19.50;99.90
25991;DHT22;13779;-33.886;151.198;2023-07-31T01:27:21;19.50;99.90
25991;DHT22;13779;-33.886;151.198;2023-07-31T01:30:11;19.50;99.90
25991;DHT22;13779;-33.886;151.198;2023-07-31T01:32:47;19.60;99.90
25991;DHT22;13779;-33.886;151.198;2023-07-31T01:35:18;19.50;99.90
25991;DHT22;13779;-33.886;151.198;2023-07-31T01:37:49;19.60;99.90
25991;DHT22;13779;-33.886;151.198;2023-07-31T01:40:23;19.60;99.90
25991;DHT22;13779;-33.886;151.198;2023-07-31T01:42:53;19.70;99.90
25991;DHT22;13779;-33.886;151.198;2023-07-31T01:45:24;19.70;99.90
25991;DHT22;13779;-33.886;151.198;2023-07-31T01:47:55;19.70;99.90
25991;DHT22;13779;-33.886;151.198;2023-07-31T01:50:25;19.80;99.90
25991;DHT22;13779;-33.886;151.198;2023-07-31T01:52:56;19.80;99.90
25991;DHT22;13779;-33.886;151.198;2023-07-31T01:55:26;19.90;99.90
25991;DHT22;13779;-33.886;151.198;2023-07-31T01:57:57;19.90;99.90
25991;DHT22;13779;-33.886;151.198;2023-07-31T02:00:28;19.90;99.90
25991;DHT22;13779;-33.886;151.198;2023-07-31T02:03:00;19.90;99.90
25991;DHT22;13779;-33.886;151.198;2023-07-31T02:05:30;20.00;99.90
25991;DHT22;13779;-33.886;151.198;2023-07-31T02:08:01;19.90;99.90
25991;DHT22;13779;-33.886;151.198;2023-07-31T02:10:33;19.90;99.90
25991;DHT22;13779;-33.886;151.198;2023-07-31T02:13:04;20.00;99.90
25991;DHT22;13779;-33.886;151.198;2023-07-31T02:15:35;20.00;99.90
25991;DHT22;13779;-33.886;151.198;2023-07-31T02:18:05;20.00;99.90
25991;DHT22;13779;-33.886;151.198;2023-07-31T02:20:36;20.10;99.90
25991;DHT22;13779;-33.886;151.198;2023-07-31T02:23:06;20.10;99.90
25991;DHT22;13779;-33.886;151.198;2023-07-31T02:25:37;20.20;99.90
25991;DHT22;13779;-33.886;151.198;2023-07-31T02:28:08;20.20;99.90
25991;DHT22;13779;-33.886;151.198;2023-07-31T02:30:39;20.30;99.90
25991;DHT22;13779;-33.886;151.198;2023-07-31T02:33:09;20.40;99.90
25991;DHT22;13779;-33.886;151.198;2023-07-31T02:35:40;20.40;99.90
25991;DHT22;13779;-33.886;151.198;2023-07-31T02:38:10;20.50;99.90
25991;DHT22;13779;-33.886;151.198;2023-07-31T02:40:41;20.40;99.90
25991;DHT22;13779;-33.886;151.198;2023-07-31T02:43:12;20.50;99.90
25991;DHT22;13779;-33.886;151.198;2023-07-31T02:45:42;20.50;99.90
25991;DHT22;13779;-33.886;151.198;2023-07-31T02:48:13;20.70;99.90
25991;DHT22;13779;-33.886;151.198;2023-07-31T02:50:43;20.70;99.90
25991;DHT22;13779;-33.886;151.198;2023-07-31T02:53:14;20.90;99.90
25991;DHT22;13779;-33.886;151.198;2023-07-31T02:55:45;21.00;99.90
25991;DHT22;13779;-33.886;151.198;2023-07-31T02:58:15;21.10;99.90
25991;DHT22;13779;-33.886;151.198;2023-07-31T03:00:46;21.20;99.90
25991;DHT22;13779;-33.886;151.198;2023-07-31T03:03:17;21.20;99.90
25991;DHT22;13779;-33.886;151.198;2023-07-31T03:05:47;21.20;99.90
25991;DHT22;13779;-33.886;151.198;2023-07-31T03:08:18;21.30;99.90
25991;DHT22;13779;-33.886;151.198;2023-07-31T03:10:49;21.30;99.90
25991;DHT22;13779;-33.886;151.198;2023-07-31T03:13:19;21.40;99.90
25991;DHT22;13779;-33.886;151.198;2023-07-31T03:15:50;21.50;99.90
25991;DHT22;13779;-33.886;151.198;2023-07-31T03:18:21;21.70;99.90
25991;DHT22;13779;-33.886;151.198;2023-07-31T03:20:51;22.00;99.90
25991;DHT22;13779;-33.886;151.198;2023-07-31T03:23:22;22.00;99.90
25991;DHT22;13779;-33.886;151.198;2023-07-31T03:26:02;22.30;99.90
25991;DHT22;13779;-33.886;151.198;2023-07-31T03:28:33;22.30;99.90
25991;DHT22;13779;-33.886;151.198;2023-07-31T03:31:04;22.50;99.90
25991;DHT22;13779;-33.886;151.198;2023-07-31T03:33:37;22.60;99.70
25991;DHT22;13779;-33.886;151.198;2023-07-31T03:36:08;22.80;98.50
25991;DHT22;13779;-33.886;151.198;2023-07-31T03:38:38;22.90;98.40
25991;DHT22;13779;-33.886;151.198;2023-07-31T03:41:09;23.10;98.00
25991;DHT22;13779;-33.886;151.198;2023-07-31T03:43:40;23.20;98.00
25991;DHT22;13779;-33.886;151.198;2023-07-31T03:46:11;23.40;96.80
25991;DHT22;13779;-33.886;151.198;2023-07-31T03:48:42;23.60;96.10
25991;DHT22;13779;-33.886;151.198;2023-07-31T03:51:13;23.90;95.10
25991;DHT22;13779;-33.886;151.198;2023-07-31T03:53:44;24.10;93.80
25991;DHT22;13779;-33.886;151.198;2023-07-31T03:56:15;24.10;93.90
25991;DHT22;13779;-33.886;151.198;2023-07-31T03:58:45;24.00;93.80
25991;DHT22;13779;-33.886;151.198;2023-07-31T04:01:16;24.10;93.30
25991;DHT22;13779;-33.886;151.198;2023-07-31T04:03:47;23.90;93.30
25991;DHT22;13779;-33.886;151.198;2023-07-31T04:06:18;24.00;92.80
25991;DHT22;13779;-33.886;151.198;2023-07-31T04:08:49;24.00;92.20
25991;DHT22;13779;-33.886;151.198;2023-07-31T04:11:20;23.80;92.30
25991;DHT22;13779;-33.886;151.198;2023-07-31T04:13:51;23.70;92.30
25991;DHT22;13779;-33.886;151.198;2023-07-31T04:16:21;23.80;92.00
25991;DHT22;13779;-33.886;151.198;2023-07-31T04:18:52;23.90;92.20
25991;DHT22;13779;-33.886;151.198;2023-07-31T04:21:23;23.90;91.80
25991;DHT22;13779;-33.886;151.198;2023-07-31T04:23:53;23.90;91.50
25991;DHT22;13779;-33.886;151.198;2023-07-31T04:26:25;23.80;91.70
25991;DHT22;13779;-33.886;151.198;2023-07-31T04:28:56;23.60;91.70
25991;DHT22;13779;-33.886;151.198;2023-07-31T04:31:27;23.70;91.30
25991;DHT22;13779;-33.886;151.198;2023-07-31T04:33:57;23.80;91.20
25991;DHT22;13779;-33.886;151.198;2023-07-31T04:36:28;24.00;91.20
25991;DHT22;13779;-33.886;151.198;2023-07-31T04:38:58;24.10;91.30
25991;DHT22;13779;-33.886;151.198;2023-07-31T04:41:29;24.30;90.30
25991;DHT22;13779;-33.886;151.198;2023-07-31T04:44:00;24.50;90.00
25991;DHT22;13779;-33.886;151.198;2023-07-31T04:46:31;24.30;90.10
25991;DHT22;13779;-33.886;151.198;2023-07-31T04:49:01;24.30;90.10
25991;DHT22;13779;-33.886;151.198;2023-07-31T04:51:31;24.10;89.40
25991;DHT22;13779;-33.886;151.198;2023-07-31T04:54:02;23.90;90.20
25991;DHT22;13779;-33.886;151.198;2023-07-31T04:56:32;23.80;90.20
25991;DHT22;13779;-33.886;151.198;2023-07-31T04:59:02;23.70;90.20
25991;DHT22;13779;-33.886;151.198;2023-07-31T05:01:32;23.60;90.20
25991;DHT22;13779;-33.886;151.198;2023-07-31T05:04:02;23.70;89.20
25991;DHT22;13779;-33.886;151.198;2023-07-31T05:06:33;23.70;90.00
25991;DHT22;13779;-33.886;151.198;2023-07-31T05:09:03;23.60;90.30
25991;DHT22;13779;-33.886;151.198;2023-07-31T05:11:33;23.50;90.60
25991;DHT22;13779;-33.886;151.198;2023-07-31T05:14:03;23.40;91.10
25991;DHT22;13779;-33.886;151.198;2023-07-31T05:16:33;23.20;90.30
25991;DHT22;13779;-33.886;151.198;2023-07-31T05:19:04;23.10;90.10
25991;DHT22;13779;-33.886;151.198;2023-07-31T05:21:34;23.00;90.40
25991;DHT22;13779;-33.886;151.198;2023-07-31T05:24:05;23.00;90.70
25991;DHT22;13779;-33.886;151.198;2023-07-31T05:26:35;23.00;90.70
25991;DHT22;13779;-33.886;151.198;2023-07-31T05:29:07;22.80;90.90
25991;DHT22;13779;-33.886;151.198;2023-07-31T05:31:38;22.60;91.10
25991;DHT22;13779;-33.886;151.198;2023-07-31T05:34:08;22.50;91.20
25991;DHT22;13779;-33.886;151.198;2023-07-31T05:36:38;22.30;91.40
25991;DHT22;13779;-33.886;151.198;2023-07-31T05:39:09;22.10;91.90
25991;DHT22;13779;-33.886;151.198;2023-07-31T05:41:39;22.00;92.00
25991;DHT22;13779;-33.886;151.198;2023-07-31T05:44:10;21.90;92.40
25991;DHT22;13779;-33.886;151.198;2023-07-31T05:46:41;21.80;92.10
25991;DHT22;13779;-33.886;151.198;2023-07-31T05:49:13;21.80;92.40
25991;DHT22;13779;-33.886;151.198;2023-07-31T05:51:44;21.80;92.40
25991;DHT22;13779;-33.886;151.198;2023-07-31T05:54:14;21.70;92.40
25991;DHT22;13779;-33.886;151.198;2023-07-31T05:56:45;21.60;92.70
25991;DHT22;13779;-33.886;151.198;2023-07-31T05:59:25;21.60;92.70
25991;DHT22;13779;-33.886;151.198;2023-07-31T06:01:56;21.50;92.70
25991;DHT22;13779;-33.886;151.198;2023-07-31T06:04:26;21.50;92.70
25991;DHT22;13779;-33.886;151.198;2023-07-31T06:06:57;21.40;93.00
25991;DHT22;13779;-33.886;151.198;2023-07-31T06:09:27;21.40;92.70
25991;DHT22;13779;-33.886;151.198;2023-07-31T06:11:58;21.30;93.40
25991;DHT22;13779;-33.886;151.198;2023-07-31T06:14:29;21.30;93.20
25991;DHT22;13779;-33.886;151.198;2023-07-31T06:16:59;21.30;93.00
25991;DHT22;13779;-33.886;151.198;2023-07-31T06:19:30;21.30;93.10
25991;DHT22;13779;-33.886;151.198;2023-07-31T06:22:00;21.30;93.10
25991;DHT22;13779;-33.886;151.198;2023-07-31T06:24:31;21.20;93.50
25991;DHT22;13779;-33.886;151.198;2023-07-31T06:27:02;21.10;94.00
25991;DHT22;13779;-33.886;151.198;2023-07-31T06:29:34;21.10;93.90
25991;DHT22;13779;-33.886;151.198;2023-07-31T06:32:05;21.00;94.20
25991;DHT22;13779;-33.886;151.198;2023-07-31T06:34:36;21.00;94.60
25991;DHT22;13779;-33.886;151.198;2023-07-31T06:37:06;20.90;94.90
25991;DHT22;13779;-33.886;151.198;2023-07-31T06:39:37;20.90;94.30
25991;DHT22;13779;-33.886;151.198;2023-07-31T06:42:07;20.80;94.90
25991;DHT22;13779;-33.886;151.198;2023-07-31T06:44:38;20.80;95.20
25991;DHT22;13779;-33.886;151.198;2023-07-31T06:47:09;20.70;95.20
25991;DHT22;13779;-33.886;151.198;2023-07-31T06:49:39;20.70;95.10
25991;DHT22;13779;-33.886;151.198;2023-07-31T06:52:10;20.70;94.90
25991;DHT22;13779;-33.886;151.198;2023-07-31T06:54:41;20.70;95.10
25991;DHT22;13779;-33.886;151.198;2023-07-31T06:57:11;20.70;95.70
25991;DHT22;13779;-33.886;151.198;2023-07-31T06:59:42;20.70;95.60
25991;DHT22;13779;-33.886;151.198;2023-07-31T07:02:12;20.60;95.60
25991;DHT22;13779;-33.886;151.198;2023-07-31T07:04:43;20.60;95.50
25991;DHT22;13779;-33.886;151.198;2023-07-31T07:07:13;20.60;95.50
25991;DHT22;13779;-33.886;151.198;2023-07-31T07:09:48;20.50;95.80
25991;DHT22;13779;-33.886;151.198;2023-07-31T07:12:19;20.40;95.90
25991;DHT22;13779;-33.886;151.198;2023-07-31T07:14:49;20.40;96.40
25991;DHT22;13779;-33.886;151.198;2023-07-31T07:17:22;20.40;96.90
25991;DHT22;13779;-33.886;151.198;2023-07-31T07:19:53;20.30;96.60
25991;DHT22;13779;-33.886;151.198;2023-07-31T07:22:27;20.30;96.80
25991;DHT22;13779;-33.886;151.198;2023-07-31T07:25:01;20.20;97.10
25991;DHT22;13779;-33.886;151.198;2023-07-31T07:27:31;20.10;97.20
25991;DHT22;13779;-33.886;151.198;2023-07-31T07:30:02;20.10;97.60
25991;DHT22;13779;-33.886;151.198;2023-07-31T07:32:34;20.00;98.30
25991;DHT22;13779;-33.886;151.198;2023-07-31T07:35:05;20.00;97.90
25991;DHT22;13779;-33.886;151.198;2023-07-31T07:37:36;19.90;98.90
25991;DHT22;13779;-33.886;151.198;2023-07-31T07:40:07;19.90;98.40
25991;DHT22;13779;-33.886;151.198;2023-07-31T07:42:37;19.80;98.80
25991;DHT22;13779;-33.886;151.198;2023-07-31T07:45:09;19.80;99.30
25991;DHT22;13779;-33.886;151.198;2023-07-31T07:47:42;19.70;99.40
25991;DHT22;13779;-33.886;151.198;2023-07-31T07:50:13;19.70;99.40
25991;DHT22;13779;-33.886;151.198;2023-07-31T07:52:43;19.60;99.90
25991;DHT22;13779;-33.886;151.198;2023-07-31T07:55:13;19.60;99.90
25991;DHT22;13779;-33.886;151.198;2023-07-31T07:57:43;19.60;99.90
25991;DHT22;13779;-33.886;151.198;2023-07-31T08:00:14;19.50;99.90
25991;DHT22;13779;-33.886;151.198;2023-07-31T08:02:44;19.40;99.90
25991;DHT22;13779;-33.886;151.198;2023-07-31T08:05:15;19.30;99.90
25991;DHT22;13779;-33.886;151.198;2023-07-31T08:07:47;19.20;99.90
25991;DHT22;13779;-33.886;151.198;2023-07-31T08:10:17;19.20;99.90
25991;DHT22;13779;-33.886;151.198;2023-07-31T08:12:47;19.00;99.90
25991;DHT22;13779;-33.886;151.198;2023-07-31T08:15:17;18.90;99.90
25991;DHT22;13779;-33.886;151.198;2023-07-31T08:17:47;18.80;99.90
25991;DHT22;13779;-33.886;151.198;2023-07-31T08:20:18;18.80;99.90
25991;DHT22;13779;-33.886;151.198;2023-07-31T08:22:48;18.80;99.90
25991;DHT22;13779;-33.886;151.198;2023-07-31T08:25:18;18.70;99.90
25991;DHT22;13779;-33.886;151.198;2023-07-31T08:27:49;18.60;99.90
25991;DHT22;13779;-33.886;151.198;2023-07-31T08:30:22;18.50;99.90
25991;DHT22;13779;-33.886;151.198;2023-07-31T08:32:52;18.50;99.90
25991;DHT22;13779;-33.886;151.198;2023-07-31T08:35:23;18.50;99.90
25991;DHT22;13779;-33.886;151.198;2023-07-31T08:37:54;18.50;99.90
25991;DHT22;13779;-33.886;151.198;2023-07-31T08:40:25;18.40;99.90
25991;DHT22;13779;-33.886;151.198;2023-07-31T08:42:56;18.40;99.90
25991;DHT22;13779;-33.886;151.198;2023-07-31T08:45:33;18.40;99.90
25991;DHT22;13779;-33.886;151.198;2023-07-31T08:48:04;18.40;99.90
25991;DHT22;13779;-33.886;151.198;2023-07-31T08:50:35;18.40;99.90
25991;DHT22;13779;-33.886;151.198;2023-07-31T08:53:05;18.30;99.90
25991;DHT22;13779;-33.886;151.198;2023-07-31T08:55:36;18.20;99.90
25991;DHT22;13779;-33.886;151.198;2023-07-31T08:58:08;18.20;99.90
25991;DHT22;13779;-33.886;151.198;2023-07-31T09:00:38;18.10;99.90
25991;DHT22;13779;-33.886;151.198;2023-07-31T09:03:15;18.10;99.90
25991;DHT22;13779;-33.886;151.198;2023-07-31T09:05:47;18.00;99.90
25991;DHT22;13779;-33.886;151.198;2023-07-31T09:08:22;18.00;99.90
25991;DHT22;13779;-33.886;151.198;2023-07-31T09:10:52;18.00;99.90
25991;DHT22;13779;-33.886;151.198;2023-07-31T09:13:22;18.00;99.90
25991;DHT22;13779;-33.886;151.198;2023-07-31T09:15:52;18.00;99.90
25991;DHT22;13779;-33.886;151.198;2023-07-31T09:18:23;17.90;99.90
25991;DHT22;13779;-33.886;151.198;2023-07-31T09:21:04;17.80;99.90
25991;DHT22;13779;-33.886;151.198;2023-07-31T09:23:47;17.80;99.90
25991;DHT22;13779;-33.886;151.198;2023-07-31T09:26:36;17.80;99.90
25991;DHT22;13779;-33.886;151.198;2023-07-31T09:29:07;17.80;99.90
25991;DHT22;13779;-33.886;151.198;2023-07-31T09:31:48;17.70;99.90
25991;DHT22;13779;-33.886;151.198;2023-07-31T09:34:19;17.60;99.90
25991;DHT22;13779;-33.886;151.198;2023-07-31T09:36:50;17.60;99.90
25991;DHT22;13779;-33.886;151.198;2023-07-31T09:39:22;17.50;99.90
25991;DHT22;13779;-33.886;151.198;2023-07-31T09:41:56;17.40;99.90
25991;DHT22;13779;-33.886;151.198;2023-07-31T09:44:40;17.40;99.90
25991;DHT22;13779;-33.886;151.198;2023-07-31T09:47:27;17.30;99.90
25991;DHT22;13779;-33.886;151.198;2023-07-31T09:50:00;17.30;99.90
25991;DHT22;13779;-33.886;151.198;2023-07-31T09:52:31;17.30;99.90
25991;DHT22;13779;-33.886;151.198;2023-07-31T09:55:04;17.30;99.90
25991;DHT22;13779;-33.886;151.198;2023-07-31T09:57:38;17.30;99.90
25991;DHT22;13779;-33.886;151.198;2023-07-31T10:00:15;17.20;99.90
25991;DHT22;13779;-33.886;151.198;2023-07-31T10:02:47;17.10;99.90
25991;DHT22;13779;-33.886;151.198;2023-07-31T10:05:17;17.10;99.90
25991;DHT22;13779;-33.886;151.198;2023-07-31T10:07:55;17.10;99.90
25991;DHT22;13779;-33.886;151.198;2023-07-31T10:10:26;17.00;99.90
25991;DHT22;13779;-33.886;151.198;2023-07-31T10:13:01;17.00;99.90
25991;DHT22;13779;-33.886;151.198;2023-07-31T10:15:35;17.00;99.90
25991;DHT22;13779;-33.886;151.198;2023-07-31T10:18:09;16.90;99.90
25991;DHT22;13779;-33.886;151.198;2023-07-31T10:20:39;17.00;99.90
25991;DHT22;13779;-33.886;151.198;2023-07-31T10:23:11;17.00;99.90
25991;DHT22;13779;-33.886;151.198;2023-07-31T10:25:43;17.00;99.90
25991;DHT22;13779;-33.886;151.198;2023-07-31T10:28:22;17.00;99.90
25991;DHT22;13779;-33.886;151.198;2023-07-31T10:30:56;17.00;99.90
25991;DHT22;13779;-33.886;151.198;2023-07-31T10:33:27;17.00;99.90
25991;DHT22;13779;-33.886;151.198;2023-07-31T10:36:20;16.90;99.90
25991;DHT22;13779;-33.886;151.198;2023-07-31T10:38:56;17.00;99.90
25991;DHT22;13779;-33.886;151.198;2023-07-31T10:41:30;16.90;99.90
25991;DHT22;13779;-33.886;151.198;2023-07-31T10:44:02;16.90;99.90
25991;DHT22;13779;-33.886;151.198;2023-07-31T10:46:33;16.90;99.90
25991;DHT22;13779;-33.886;151.198;2023-07-31T10:49:05;16.90;99.90
25991;DHT22;13779;-33.886;151.198;2023-07-31T10:51:41;16.90;99.90
25991;DHT22;13779;-33.886;151.198;2023-07-31T10:54:17;16.80;99.90
25991;DHT22;13779;-33.886;151.198;2023-07-31T10:56:51;16.70;99.90
25991;DHT22;13779;-33.886;151.198;2023-07-31T10:59:27;16.70;99.90
25991;DHT22;13779;-33.886;151.198;2023-07-31T11:02:01;16.80;99.90
25991;DHT22;13779;-33.886;151.198;2023-07-31T11:04:32;16.80;99.90
25991;DHT22;13779;-33.886;151.198;2023-07-31T11:07:06;16.80;99.90
25991;DHT22;13779;-33.886;151.198;2023-07-31T11:09:40;16.80;99.90
25991;DHT22;13779;-33.886;151.198;2023-07-31T11:12:11;16.90;99.90
25991;DHT22;13779;-33.886;151.198;2023-07-31T11:15:02;16.80;99.90
25991;DHT22;13779;-33.886;151.198;2023-07-31T11:17:33;16.90;99.90
25991;DHT22;13779;-33.886;151.198;2023-07-31T11:20:04;16.80;99.90
25991;DHT22;13779;-33.886;151.198;2023-07-31T11:22:35;16.80;99.90
25991;DHT22;13779;-33.886;151.198;2023-07-31T11:25:06;16.80;99.90
25991;DHT22;13779;-33.886;151.198;2023-07-31T11:27:40;16.80;99.90
25991;DHT22;13779;-33.886;151.198;2023-07-31T11:30:12;16.90;99.90
25991;DHT22;13779;-33.886;151.198;2023-07-31T11:32:42;16.90;99.90
25991;DHT22;13779;-33.886;151.198;2023-07-31T11:35:13;16.80;99.90
25991;DHT22;13779;-33.886;151.198;2023-07-31T11:37:44;16.80;99.90
25991;DHT22;13779;-33.886;151.198;2023-07-31T11:40:16;16.80;99.90
25991;DHT22;13779;-33.886;151.198;2023-07-31T11:42:49;16.70;99.90
25991;DHT22;13779;-33.886;151.198;2023-07-31T11:45:19;16.70;99.90
25991;DHT22;13779;-33.886;151.198;2023-07-31T11:47:52;16.70;99.90
25991;DHT22;13779;-33.886;151.198;2023-07-31T11:50:27;16.70;99.90
25991;DHT22;13779;-33.886;151.198;2023-07-31T11:53:02;16.70;99.90
25991;DHT22;13779;-33.886;151.198;2023-07-31T11:55:34;16.70;99.90
25991;DHT22;13779;-33.886;151.198;2023-07-31T11:58:05;16.70;99.90
25991;DHT22;13779;-33.886;151.198;2023-07-31T12:00:37;16.70;99.90
25991;DHT22;13779;-33.886;151.198;2023-07-31T12:03:17;16.60;99.90
25991;DHT22;13779;-33.886;151.198;2023-07-31T12:05:52;16.60;99.90
25991;DHT22;13779;-33.886;151.198;2023-07-31T12:08:27;16.60;99.90
25991;DHT22;13779;-33.886;151.198;2023-07-31T12:11:09;16.50;99.90
25991;DHT22;13779;-33.886;151.198;2023-07-31T12:13:40;16.40;99.90
25991;DHT22;13779;-33.886;151.198;2023-07-31T12:16:11;16.40;99.90
25991;DHT22;13779;-33.886;151.198;2023-07-31T12:18:41;16.40;99.90
25991;DHT22;13779;-33.886;151.198;2023-07-31T12:21:12;16.40;99.90
25991;DHT22;13779;-33.886;151.198;2023-07-31T12:23:45;16.40;99.90
25991;DHT22;13779;-33.886;151.198;2023-07-31T12:26:16;16.40;99.90
25991;DHT22;13779;-33.886;151.198;2023-07-31T12:28:49;16.40;99.90
25991;DHT22;13779;-33.886;151.198;2023-07-31T12:31:21;16.40;99.90
25991;DHT22;13779;-33.886;151.198;2023-07-31T12:33:52;16.40;99.90
25991;DHT22;13779;-33.886;151.198;2023-07-31T12:36:23;16.30;99.90
25991;DHT22;13779;-33.886;151.198;2023-07-31T12:38:54;16.20;99.90
25991;DHT22;13779;-33.886;151.198;2023-07-31T12:41:27;16.20;99.90
25991;DHT22;13779;-33.886;151.198;2023-07-31T12:43:59;16.20;99.90
25991;DHT22;13779;-33.886;151.198;2023-07-31T12:46:30;16.10;99.90
25991;DHT22;13779;-33.886;151.198;2023-07-31T12:49:07;16.10;99.90
25991;DHT22;13779;-33.886;151.198;2023-07-31T12:51:38;16.00;99.90
25991;DHT22;13779;-33.886;151.198;2023-07-31T12:54:09;15.90;99.90
25991;DHT22;13779;-33.886;151.198;2023-07-31T12:56:40;15.80;99.90
25991;DHT22;13779;-33.886;151.198;2023-07-31T12:59:11;15.80;99.90
25991;DHT22;13779;-33.886;151.198;2023-07-31T13:01:42;15.80;99.90
25991;DHT22;13779;-33.886;151.198;2023-07-31T13:04:13;15.80;99.90
25991;DHT22;13779;-33.886;151.198;2023-07-31T13:06:44;15.80;99.90
25991;DHT22;13779;-33.886;151.198;2023-07-31T13:09:15;15.70;99.90
25991;DHT22;13779;-33.886;151.198;2023-07-31T13:11:47;15.70;99.90
25991;DHT22;13779;-33.886;151.198;2023-07-31T13:14:18;15.80;99.90
25991;DHT22;13779;-33.886;151.198;2023-07-31T13:16:49;15.80;99.90
25991;DHT22;13779;-33.886;151.198;2023-07-31T13:19:19;15.70;99.90
25991;DHT22;13779;-33.886;151.198;2023-07-31T13:21:53;15.70;99.90
25991;DHT22;13779;-33.886;151.198;2023-07-31T13:24:23;15.70;99.90
25991;DHT22;13779;-33.886;151.198;2023-07-31T13:26:55;15.70;99.90
25991;DHT22;13779;-33.886;151.198;2023-07-31T13:29:25;15.70;99.90
25991;DHT22;13779;-33.886;151.198;2023-07-31T13:31:56;15.70;99.90
25991;DHT22;13779;-33.886;151.198;2023-07-31T13:34:26;15.70;99.90
25991;DHT22;13779;-33.886;151.198;2023-07-31T13:36:57;15.60;99.90
25991;DHT22;13779;-33.886;151.198;2023-07-31T13:39:27;15.70;99.90
25991;DHT22;13779;-33.886;151.198;2023-07-31T13:42:02;15.70;99.90
25991;DHT22;13779;-33.886;151.198;2023-07-31T13:44:35;15.60;99.90
25991;DHT22;13779;-33.886;151.198;2023-07-31T13:47:06;15.50;99.90
25991;DHT22;13779;-33.886;151.198;2023-07-31T13:49:37;15.50;99.90
25991;DHT22;13779;-33.886;151.198;2023-07-31T13:52:08;15.40;99.90
25991;DHT22;13779;-33.886;151.198;2023-07-31T13:54:38;15.50;99.90
25991;DHT22;13779;-33.886;151.198;2023-07-31T13:57:08;15.40;99.90
25991;DHT22;13779;-33.886;151.198;2023-07-31T13:59:39;15.40;99.90
25991;DHT22;13779;-33.886;151.198;2023-07-31T14:02:09;15.30;99.90
25991;DHT22;13779;-33.886;151.198;2023-07-31T14:04:39;15.30;99.90
25991;DHT22;13779;-33.886;151.198;2023-07-31T14:07:09;15.30;99.90
25991;DHT22;13779;-33.886;151.198;2023-07-31T14:09:40;15.30;99.90
25991;DHT22;13779;-33.886;151.198;2023-07-31T14:12:10;15.30;99.90
25991;DHT22;13779;-33.886;151.198;2023-07-31T14:14:48;15.30;99.90
25991;DHT22;13779;-33.886;151.198;2023-07-31T14:17:19;15.30;99.90
25991;DHT22;13779;-33.886;151.198;2023-07-31T14:19:49;15.30;99.90
25991;DHT22;13779;-33.886;151.198;2023-07-31T14:22:30;15.20;99.90
25991;DHT22;13779;-33.886;151.198;2023-07-31T14:25:01;15.20;99.90
25991;DHT22;13779;-33.886;151.198;2023-07-31T14:27:31;15.20;99.90
25991;DHT22;13779;-33.886;151.198;2023-07-31T14:30:02;15.20;99.90
25991;DHT22;13779;-33.886;151.198;2023-07-31T14:32:32;15.10;99.90
25991;DHT22;13779;-33.886;151.198;2023-07-31T14:35:03;15.10;99.90
25991;DHT22;13779;-33.886;151.198;2023-07-31T14:37:43;15.10;99.90
25991;DHT22;13779;-33.886;151.198;2023-07-31T14:40:15;15.20;99.90
25991;DHT22;13779;-33.886;151.198;2023-07-31T14:42:45;15.10;99.90
25991;DHT22;13779;-33.886;151.198;2023-07-31T14:45:15;15.10;99.90
25991;DHT22;13779;-33.886;151.198;2023-07-31T14:47:46;15.00;99.90
25991;DHT22;13779;-33.886;151.198;2023-07-31T14:50:17;15.00;99.90
25991;DHT22;13779;-33.886;151.198;2023-07-31T14:52:48;15.00;99.90
25991;DHT22;13779;-33.886;151.198;2023-07-31T14:55:20;15.00;99.90
25991;DHT22;13779;-33.886;151.198;2023-07-31T14:57:50;14.90;99.90
25991;DHT22;13779;-33.886;151.198;2023-07-31T15:00:21;14.90;99.90
25991;DHT22;13779;-33.886;151.198;2023-07-31T15:02:53;14.90;99.90
25991;DHT22;13779;-33.886;151.198;2023-07-31T15:05:24;14.80;99.90
25991;DHT22;13779;-33.886;151.198;2023-07-31T15:07:55;14.80;99.90
25991;DHT22;13779;-33.886;151.198;2023-07-31T15:10:25;14.70;99.90
25991;DHT22;13779;-33.886;151.198;2023-07-31T15:12:56;14.60;99.90
25991;DHT22;13779;-33.886;151.198;2023-07-31T15:15:27;14.70;99.90
25991;DHT22;13779;-33.886;151.198;2023-07-31T15:18:00;14.70;99.90
25991;DHT22;13779;-33.886;151.198;2023-07-31T15:20:30;14.70;99.90
25991;DHT22;13779;-33.886;151.198;2023-07-31T15:23:02;14.70;99.90
25991;DHT22;13779;-33.886;151.198;2023-07-31T15:25:32;14.60;99.90